sensor_id;sensor_type;location;lat;lon;timestamp;P1;durP1;ratioP1;P2;durP2;ratioP2
38811;SDS011;24553;51.640;-0.752;2022-12-18T00:01:27;14.82;;;7.47;;
38811;SDS011;24553;51.640;-0.752;2022-12-18T00:04:01;15.13;;;5.90;;
38811;SDS011;24553;51.640;-0.752;2022-12-18T00:06:33;13.83;;;5.90;;
38811;SDS011;24553;51.640;-0.752;2022-12-18T00:09:00;19.23;;;7.07;;
38811;SDS011;24553;51.640;-0.752;2022-12-18T00:11:27;19.63;;;5.68;;
38811;SDS011;24553;51.640;-0.752;2022-12-18T00:13:55;12.98;;;5.38;;
38811;SDS011;24553;51.640;-0.752;2022-12-18T00:16:22;14.20;;;5.50;;
38811;SDS011;24553;51.640;-0.752;2022-12-18T00:18:49;11.65;;;4.43;;
38811;SDS011;24553;51.640;-0.752;2022-12-18T00:21:16;13.27;;;5.30;;
38811;SDS011;24553;51.640;-0.752;2022-12-18T00:23:43;14.23;;;6.68;;
38811;SDS011;24553;51.640;-0.752;2022-12-18T00:26:28;18.10;;;5.15;;
38811;SDS011;24553;51.640;-0.752;2022-12-18T00:28:57;16.45;;;5.55;;
38811;SDS011;24553;51.640;-0.752;2022-12-18T00:31:24;11.05;;;3.03;;
38811;SDS011;24553;51.640;-0.752;2022-12-18T00:33:50;17.17;;;5.13;;
38811;SDS011;24553;51.640;-0.752;2022-12-18T00:36:17;16.20;;;6.73;;
38811;SDS011;24553;51.640;-0.752;2022-12-18T00:38:44;14.03;;;6.73;;
38811;SDS011;24553;51.640;-0.752;2022-12-18T00:41:11;10.67;;;4.17;;
38811;SDS011;24553;51.640;-0.752;2022-12-18T00:43:38;22.10;;;5.77;;
38811;SDS011;24553;51.640;-0.752;2022-12-18T00:46:04;18.23;;;6.00;;
38811;SDS011;24553;51.640;-0.752;2022-12-18T00:48:29;14.10;;;6.03;;
38811;SDS011;24553;51.640;-0.752;2022-12-18T00:50:55;14.43;;;5.17;;
38811;SDS011;24553;51.640;-0.752;2022-12-18T00:53:20;24.30;;;5.80;;
38811;SDS011;24553;51.640;-0.752;2022-12-18T00:55:46;15.83;;;5.90;;
38811;SDS011;24553;51.640;-0.752;2022-12-18T00:58:12;15.90;;;6.77;;
38811;SDS011;24553;51.640;-0.752;2022-12-18T01:00:38;18.03;;;5.67;;
38811;SDS011;24553;51.640;-0.752;2022-12-18T01:03:04;22.47;;;7.47;;
38811;SDS011;24553;51.640;-0.752;2022-12-18T01:05:30;18.60;;;6.37;;
38811;SDS011;24553;51.640;-0.752;2022-12-18T01:07:56;26.07;;;7.00;;
38811;SDS011;24553;51.640;-0.752;2022-12-18T01:10:21;17.40;;;6.37;;
38811;SDS011;24553;51.640;-0.752;2022-12-18T01:12:47;11.80;;;5.03;;
38811;SDS011;24553;51.640;-0.752;2022-12-18T01:15:14;14.77;;;5.93;;
38811;SDS011;24553;51.640;-0.752;2022-12-18T01:17:39;15.82;;;6.15;;
38811;SDS011;24553;51.640;-0.752;2022-12-18T01:20:05;18.33;;;6.63;;
38811;SDS011;24553;51.640;-0.752;2022-12-18T01:22:34;20.00;;;6.80;;
38811;SDS011;24553;51.640;-0.752;2022-12-18T01:25:00;18.43;;;6.97;;
38811;SDS011;24553;51.640;-0.752;2022-12-18T01:27:26;15.18;;;6.10;;
38811;SDS011;24553;51.640;-0.752;2022-12-18T01:29:51;13.77;;;4.70;;
38811;SDS011;24553;51.640;-0.752;2022-12-18T01:32:16;17.77;;;6.73;;
38811;SDS011;24553;51.640;-0.752;2022-12-18T01:34:42;16.00;;;5.93;;
38811;SDS011;24553;51.640;-0.752;2022-12-18T01:37:07;20.50;;;5.47;;
38811;SDS011;24553;51.640;-0.752;2022-12-18T01:39:33;18.30;;;7.30;;
38811;SDS011;24553;51.640;-0.752;2022-12-18T01:41:59;16.55;;;6.43;;
38811;SDS011;24553;51.640;-0.752;2022-12-18T01:47:43;17.05;;;6.03;;
38811;SDS011;24553;51.640;-0.752;2022-12-18T01:50:13;17.45;;;7.28;;
38811;SDS011;24553;51.640;-0.752;2022-12-18T01:52:48;15.93;;;6.97;;
38811;SDS011;24553;51.640;-0.752;2022-12-18T01:55:17;18.52;;;6.85;;
38811;SDS011;24553;51.640;-0.752;2022-12-18T01:57:45;24.67;;;7.43;;
38811;SDS011;24553;51.640;-0.752;2022-12-18T02:00:17;21.55;;;7.20;;
38811;SDS011;24553;51.640;-0.752;2022-12-18T02:02:45;19.25;;;7.88;;
38811;SDS011;24553;51.640;-0.752;2022-12-18T02:05:11;19.92;;;7.72;;
38811;SDS011;24553;51.640;-0.752;2022-12-18T02:16:41;17.08;;;7.95;;
38811;SDS011;24553;51.640;-0.752;2022-12-18T02:19:26;18.38;;;6.88;;
38811;SDS011;24553;51.640;-0.752;2022-12-18T02:24:45;17.95;;;8.30;;
38811;SDS011;24553;51.640;-0.752;2022-12-18T02:27:35;26.05;;;8.48;;
38811;SDS011;24553;51.640;-0.752;2022-12-18T02:30:04;25.10;;;9.73;;
38811;SDS011;24553;51.640;-0.752;2022-12-18T02:32:31;19.38;;;7.60;;
38811;SDS011;24553;51.640;-0.752;2022-12-18T02:35:02;21.85;;;7.82;;
38811;SDS011;24553;51.640;-0.752;2022-12-18T02:37:30;23.25;;;9.15;;
38811;SDS011;24553;51.640;-0.752;2022-12-18T02:39:59;29.02;;;8.18;;
38811;SDS011;24553;51.640;-0.752;2022-12-18T02:42:24;30.40;;;8.90;;
38811;SDS011;24553;51.640;-0.752;2022-12-18T02:44:55;27.17;;;9.48;;
38811;SDS011;24553;51.640;-0.752;2022-12-18T02:47:22;21.55;;;8.70;;
38811;SDS011;24553;51.640;-0.752;2022-12-18T02:49:58;19.48;;;7.35;;
38811;SDS011;24553;51.640;-0.752;2022-12-18T02:57:51;19.42;;;7.93;;
38811;SDS011;24553;51.640;-0.752;2022-12-18T03:00:25;24.90;;;9.48;;
38811;SDS011;24553;51.640;-0.752;2022-12-18T03:05:42;21.60;;;8.70;;
38811;SDS011;24553;51.640;-0.752;2022-12-18T03:08:47;26.85;;;10.27;;
38811;SDS011;24553;51.640;-0.752;2022-12-18T03:11:09;23.25;;;8.50;;
38811;SDS011;24553;51.640;-0.752;2022-12-18T03:13:40;23.77;;;8.50;;
38811;SDS011;24553;51.640;-0.752;2022-12-18T03:16:14;22.60;;;7.85;;
38811;SDS011;24553;51.640;-0.752;2022-12-18T03:18:57;22.75;;;8.55;;
38811;SDS011;24553;51.640;-0.752;2022-12-18T03:21:29;30.15;;;9.35;;
38811;SDS011;24553;51.640;-0.752;2022-12-18T03:24:00;22.95;;;8.20;;
38811;SDS011;24553;51.640;-0.752;2022-12-18T03:26:30;30.47;;;9.77;;
38811;SDS011;24553;51.640;-0.752;2022-12-18T03:29:01;20.08;;;9.32;;
38811;SDS011;24553;51.640;-0.752;2022-12-18T03:31:31;24.10;;;8.10;;
38811;SDS011;24553;51.640;-0.752;2022-12-18T03:34:04;26.30;;;7.97;;
38811;SDS011;24553;51.640;-0.752;2022-12-18T03:36:34;32.17;;;10.63;;
38811;SDS011;24553;51.640;-0.752;2022-12-18T03:38:59;29.60;;;10.35;;
38811;SDS011;24553;51.640;-0.752;2022-12-18T03:41:30;25.42;;;8.48;;
38811;SDS011;24553;51.640;-0.752;2022-12-18T03:44:04;19.95;;;8.93;;
38811;SDS011;24553;51.640;-0.752;2022-12-18T03:49:35;20.05;;;8.15;;
38811;SDS011;24553;51.640;-0.752;2022-12-18T03:52:28;26.30;;;8.90;;
38811;SDS011;24553;51.640;-0.752;2022-12-18T03:55:01;18.58;;;7.32;;
38811;SDS011;24553;51.640;-0.752;2022-12-18T03:57:28;23.40;;;7.18;;
38811;SDS011;24553;51.640;-0.752;2022-12-18T03:59:58;22.88;;;8.52;;
38811;SDS011;24553;51.640;-0.752;2022-12-18T04:02:27;27.35;;;9.57;;
38811;SDS011;24553;51.640;-0.752;2022-12-18T04:04:55;18.85;;;7.03;;
38811;SDS011;24553;51.640;-0.752;2022-12-18T04:07:25;23.58;;;7.82;;
38811;SDS011;24553;51.640;-0.752;2022-12-18T04:09:52;25.35;;;8.95;;
38811;SDS011;24553;51.640;-0.752;2022-12-18T04:12:21;19.60;;;9.13;;
38811;SDS011;24553;51.640;-0.752;2022-12-18T04:14:48;17.23;;;7.75;;
38811;SDS011;24553;51.640;-0.752;2022-12-18T04:17:14;20.52;;;7.90;;
38811;SDS011;24553;51.640;-0.752;2022-12-18T04:19:39;24.25;;;8.27;;
38811;SDS011;24553;51.640;-0.752;2022-12-18T04:22:04;22.17;;;9.40;;
38811;SDS011;24553;51.640;-0.752;2022-12-18T04:24:30;29.50;;;9.00;;
38811;SDS011;24553;51.640;-0.752;2022-12-18T04:26:55;20.40;;;8.05;;
38811;SDS011;24553;51.640;-0.752;2022-12-18T04:29:20;17.75;;;7.45;;
38811;SDS011;24553;51.640;-0.752;2022-12-18T04:31:46;18.63;;;7.03;;
38811;SDS011;24553;51.640;-0.752;2022-12-18T04:34:11;23.10;;;8.77;;
38811;SDS011;24553;51.640;-0.752;2022-12-18T04:36:36;18.55;;;8.65;;
38811;SDS011;24553;51.640;-0.752;2022-12-18T04:39:01;21.23;;;7.68;;
38811;SDS011;24553;51.640;-0.752;2022-12-18T04:41:27;32.35;;;8.35;;
38811;SDS011;24553;51.640;-0.752;2022-12-18T04:43:52;18.02;;;6.57;;
38811;SDS011;24553;51.640;-0.752;2022-12-18T04:46:18;21.38;;;7.63;;
38811;SDS011;24553;51.640;-0.752;2022-12-18T04:48:44;19.20;;;7.40;;
38811;SDS011;24553;51.640;-0.752;2022-12-18T04:51:10;18.73;;;7.35;;
38811;SDS011;24553;51.640;-0.752;2022-12-18T04:53:36;15.63;;;6.55;;
38811;SDS011;24553;51.640;-0.752;2022-12-18T04:56:02;13.75;;;6.35;;
38811;SDS011;24553;51.640;-0.752;2022-12-18T04:58:32;19.13;;;7.68;;
38811;SDS011;24553;51.640;-0.752;2022-12-18T05:00:57;16.30;;;7.78;;
38811;SDS011;24553;51.640;-0.752;2022-12-18T05:03:22;23.33;;;10.10;;
38811;SDS011;24553;51.640;-0.752;2022-12-18T05:05:51;22.75;;;8.52;;
38811;SDS011;24553;51.640;-0.752;2022-12-18T05:08:17;24.60;;;7.43;;
38811;SDS011;24553;51.640;-0.752;2022-12-18T05:10:42;22.85;;;7.25;;
38811;SDS011;24553;51.640;-0.752;2022-12-18T05:13:07;21.52;;;7.43;;
38811;SDS011;24553;51.640;-0.752;2022-12-18T05:15:33;13.45;;;5.68;;
38811;SDS011;24553;51.640;-0.752;2022-12-18T05:17:59;16.55;;;6.47;;
38811;SDS011;24553;51.640;-0.752;2022-12-18T05:20:24;19.75;;;7.82;;
38811;SDS011;24553;51.640;-0.752;2022-12-18T05:22:51;22.95;;;7.85;;
38811;SDS011;24553;51.640;-0.752;2022-12-18T05:25:17;21.55;;;7.65;;
38811;SDS011;24553;51.640;-0.752;2022-12-18T05:27:42;16.77;;;7.75;;
38811;SDS011;24553;51.640;-0.752;2022-12-18T05:30:08;22.08;;;8.65;;
38811;SDS011;24553;51.640;-0.752;2022-12-18T05:32:34;19.05;;;7.20;;
38811;SDS011;24553;51.640;-0.752;2022-12-18T05:35:00;20.58;;;6.47;;
38811;SDS011;24553;51.640;-0.752;2022-12-18T05:37:25;19.92;;;7.03;;
38811;SDS011;24553;51.640;-0.752;2022-12-18T05:39:50;13.73;;;5.82;;
38811;SDS011;24553;51.640;-0.752;2022-12-18T05:42:16;25.45;;;8.00;;
38811;SDS011;24553;51.640;-0.752;2022-12-18T05:44:41;19.20;;;6.30;;
38811;SDS011;24553;51.640;-0.752;2022-12-18T05:47:07;19.58;;;7.35;;
38811;SDS011;24553;51.640;-0.752;2022-12-18T05:49:33;20.55;;;7.72;;
38811;SDS011;24553;51.640;-0.752;2022-12-18T05:51:58;16.65;;;6.25;;
38811;SDS011;24553;51.640;-0.752;2022-12-18T05:54:26;19.90;;;7.60;;
38811;SDS011;24553;51.640;-0.752;2022-12-18T05:56:52;13.48;;;4.57;;
38811;SDS011;24553;51.640;-0.752;2022-12-18T05:59:17;16.08;;;6.55;;
38811;SDS011;24553;51.640;-0.752;2022-12-18T06:01:43;16.45;;;5.93;;
38811;SDS011;24553;51.640;-0.752;2022-12-18T06:04:08;13.18;;;6.22;;
38811;SDS011;24553;51.640;-0.752;2022-12-18T06:06:33;12.73;;;5.70;;
38811;SDS011;24553;51.640;-0.752;2022-12-18T06:08:59;13.90;;;5.65;;
38811;SDS011;24553;51.640;-0.752;2022-12-18T06:11:26;14.40;;;5.18;;
38811;SDS011;24553;51.640;-0.752;2022-12-18T06:13:52;16.08;;;7.20;;
38811;SDS011;24553;51.640;-0.752;2022-12-18T06:16:19;11.93;;;4.95;;
38811;SDS011;24553;51.640;-0.752;2022-12-18T06:18:44;11.82;;;4.85;;
38811;SDS011;24553;51.640;-0.752;2022-12-18T06:21:09;13.73;;;5.40;;
38811;SDS011;24553;51.640;-0.752;2022-12-18T06:23:35;15.32;;;5.85;;
38811;SDS011;24553;51.640;-0.752;2022-12-18T06:26:04;21.60;;;6.78;;
38811;SDS011;24553;51.640;-0.752;2022-12-18T06:28:31;22.23;;;7.07;;
38811;SDS011;24553;51.640;-0.752;2022-12-18T06:30:56;24.15;;;6.40;;
38811;SDS011;24553;51.640;-0.752;2022-12-18T06:33:22;15.30;;;7.53;;
38811;SDS011;24553;51.640;-0.752;2022-12-18T06:35:51;9.25;;;5.05;;
38811;SDS011;24553;51.640;-0.752;2022-12-18T06:38:16;12.68;;;5.30;;
38811;SDS011;24553;51.640;-0.752;2022-12-18T06:40:42;17.60;;;6.35;;
38811;SDS011;24553;51.640;-0.752;2022-12-18T06:43:07;12.50;;;5.60;;
38811;SDS011;24553;51.640;-0.752;2022-12-18T06:45:32;15.93;;;5.68;;
38811;SDS011;24553;51.640;-0.752;2022-12-18T06:47:58;20.55;;;6.70;;
38811;SDS011;24553;51.640;-0.752;2022-12-18T06:50:24;16.50;;;6.20;;
38811;SDS011;24553;51.640;-0.752;2022-12-18T06:52:49;16.80;;;6.18;;
38811;SDS011;24553;51.640;-0.752;2022-12-18T06:55:14;17.63;;;5.22;;
38811;SDS011;24553;51.640;-0.752;2022-12-18T06:57:39;14.32;;;6.60;;
38811;SDS011;24553;51.640;-0.752;2022-12-18T07:00:05;12.75;;;6.13;;
38811;SDS011;24553;51.640;-0.752;2022-12-18T07:02:31;11.88;;;5.85;;
38811;SDS011;24553;51.640;-0.752;2022-12-18T07:04:57;13.90;;;6.55;;
38811;SDS011;24553;51.640;-0.752;2022-12-18T07:07:23;15.13;;;4.97;;
38811;SDS011;24553;51.640;-0.752;2022-12-18T07:09:51;14.15;;;5.75;;
38811;SDS011;24553;51.640;-0.752;2022-12-18T07:12:16;13.40;;;5.97;;
38811;SDS011;24553;51.640;-0.752;2022-12-18T07:14:42;14.73;;;6.28;;
38811;SDS011;24553;51.640;-0.752;2022-12-18T07:17:08;18.38;;;6.93;;
38811;SDS011;24553;51.640;-0.752;2022-12-18T07:19:33;16.27;;;6.47;;
38811;SDS011;24553;51.640;-0.752;2022-12-18T07:21:59;13.63;;;5.75;;
38811;SDS011;24553;51.640;-0.752;2022-12-18T07:24:25;12.40;;;5.90;;
38811;SDS011;24553;51.640;-0.752;2022-12-18T07:26:50;16.45;;;7.10;;
38811;SDS011;24553;51.640;-0.752;2022-12-18T07:29:16;14.82;;;6.25;;
38811;SDS011;24553;51.640;-0.752;2022-12-18T07:31:41;10.30;;;4.85;;
38811;SDS011;24553;51.640;-0.752;2022-12-18T07:34:10;17.73;;;6.53;;
38811;SDS011;24553;51.640;-0.752;2022-12-18T07:36:36;20.40;;;6.93;;
38811;SDS011;24553;51.640;-0.752;2022-12-18T07:39:02;19.60;;;6.47;;
38811;SDS011;24553;51.640;-0.752;2022-12-18T07:41:27;15.50;;;6.68;;
38811;SDS011;24553;51.640;-0.752;2022-12-18T07:43:53;13.35;;;5.35;;
38811;SDS011;24553;51.640;-0.752;2022-12-18T07:46:18;14.23;;;6.15;;
38811;SDS011;24553;51.640;-0.752;2022-12-18T07:48:44;15.43;;;5.45;;
38811;SDS011;24553;51.640;-0.752;2022-12-18T07:51:12;15.98;;;5.93;;
38811;SDS011;24553;51.640;-0.752;2022-12-18T07:53:38;13.60;;;7.00;;
38811;SDS011;24553;51.640;-0.752;2022-12-18T07:56:05;13.95;;;6.38;;
38811;SDS011;24553;51.640;-0.752;2022-12-18T07:58:33;11.07;;;5.82;;
38811;SDS011;24553;51.640;-0.752;2022-12-18T08:01:06;19.52;;;6.68;;
38811;SDS011;24553;51.640;-0.752;2022-12-18T08:03:33;15.07;;;5.95;;
38811;SDS011;24553;51.640;-0.752;2022-12-18T08:05:59;13.63;;;5.60;;
38811;SDS011;24553;51.640;-0.752;2022-12-18T08:08:26;16.40;;;6.25;;
38811;SDS011;24553;51.640;-0.752;2022-12-18T08:10:51;14.77;;;5.70;;
38811;SDS011;24553;51.640;-0.752;2022-12-18T08:13:16;15.40;;;6.35;;
38811;SDS011;24553;51.640;-0.752;2022-12-18T08:15:42;16.35;;;5.70;;
38811;SDS011;24553;51.640;-0.752;2022-12-18T08:18:07;17.38;;;6.25;;
38811;SDS011;24553;51.640;-0.752;2022-12-18T08:20:32;17.40;;;7.43;;
38811;SDS011;24553;51.640;-0.752;2022-12-18T08:22:58;17.05;;;7.43;;
38811;SDS011;24553;51.640;-0.752;2022-12-18T08:25:23;15.80;;;6.88;;
38811;SDS011;24553;51.640;-0.752;2022-12-18T08:27:49;14.57;;;6.72;;
38811;SDS011;24553;51.640;-0.752;2022-12-18T08:30:14;21.58;;;7.20;;
38811;SDS011;24553;51.640;-0.752;2022-12-18T08:32:39;16.60;;;7.70;;
38811;SDS011;24553;51.640;-0.752;2022-12-18T08:35:05;15.27;;;7.20;;
38811;SDS011;24553;51.640;-0.752;2022-12-18T08:37:30;17.08;;;6.38;;
38811;SDS011;24553;51.640;-0.752;2022-12-18T08:39:56;16.80;;;6.00;;
38811;SDS011;24553;51.640;-0.752;2022-12-18T08:42:21;22.67;;;6.72;;
38811;SDS011;24553;51.640;-0.752;2022-12-18T08:45:05;20.10;;;5.88;;
38811;SDS011;24553;51.640;-0.752;2022-12-18T08:47:31;10.05;;;4.93;;
38811;SDS011;24553;51.640;-0.752;2022-12-18T08:49:56;17.23;;;7.85;;
38811;SDS011;24553;51.640;-0.752;2022-12-18T08:52:22;14.55;;;6.90;;
38811;SDS011;24553;51.640;-0.752;2022-12-18T08:54:47;11.80;;;5.43;;
38811;SDS011;24553;51.640;-0.752;2022-12-18T08:57:12;15.38;;;6.60;;
38811;SDS011;24553;51.640;-0.752;2022-12-18T08:59:38;16.90;;;5.85;;
38811;SDS011;24553;51.640;-0.752;2022-12-18T09:02:03;17.00;;;8.40;;
38811;SDS011;24553;51.640;-0.752;2022-12-18T09:04:28;18.50;;;6.85;;
38811;SDS011;24553;51.640;-0.752;2022-12-18T09:06:54;18.98;;;6.43;;
38811;SDS011;24553;51.640;-0.752;2022-12-18T09:09:19;11.30;;;6.10;;
38811;SDS011;24553;51.640;-0.752;2022-12-18T09:11:44;15.55;;;5.43;;
38811;SDS011;24553;51.640;-0.752;2022-12-18T09:14:10;17.77;;;6.68;;
38811;SDS011;24553;51.640;-0.752;2022-12-18T09:16:35;11.15;;;5.00;;
38811;SDS011;24553;51.640;-0.752;2022-12-18T09:19:02;16.02;;;6.65;;
38811;SDS011;24553;51.640;-0.752;2022-12-18T09:21:33;10.05;;;5.50;;
38811;SDS011;24553;51.640;-0.752;2022-12-18T09:24:00;18.48;;;7.35;;
38811;SDS011;24553;51.640;-0.752;2022-12-18T09:26:25;13.77;;;5.72;;
38811;SDS011;24553;51.640;-0.752;2022-12-18T09:28:51;17.02;;;6.18;;
38811;SDS011;24553;51.640;-0.752;2022-12-18T09:31:18;12.07;;;5.32;;
38811;SDS011;24553;51.640;-0.752;2022-12-18T09:33:45;17.20;;;6.50;;
38811;SDS011;24553;51.640;-0.752;2022-12-18T09:36:11;16.27;;;8.00;;
38811;SDS011;24553;51.640;-0.752;2022-12-18T09:38:38;13.45;;;5.03;;
38811;SDS011;24553;51.640;-0.752;2022-12-18T09:41:18;14.77;;;6.13;;
38811;SDS011;24553;51.640;-0.752;2022-12-18T09:43:50;13.77;;;6.35;;
38811;SDS011;24553;51.640;-0.752;2022-12-18T09:46:20;17.60;;;6.63;;
38811;SDS011;24553;51.640;-0.752;2022-12-18T09:48:51;18.33;;;6.78;;
38811;SDS011;24553;51.640;-0.752;2022-12-18T09:51:21;15.13;;;5.93;;
38811;SDS011;24553;51.640;-0.752;2022-12-18T09:53:55;16.15;;;6.82;;
38811;SDS011;24553;51.640;-0.752;2022-12-18T09:56:24;13.60;;;5.82;;
38811;SDS011;24553;51.640;-0.752;2022-12-18T09:58:57;17.98;;;6.80;;
38811;SDS011;24553;51.640;-0.752;2022-12-18T10:01:24;15.90;;;6.88;;
38811;SDS011;24553;51.640;-0.752;2022-12-18T10:03:50;15.63;;;7.03;;
38811;SDS011;24553;51.640;-0.752;2022-12-18T10:06:25;13.52;;;5.50;;
38811;SDS011;24553;51.640;-0.752;2022-12-18T10:08:58;12.77;;;5.22;;
38811;SDS011;24553;51.640;-0.752;2022-12-18T10:19:57;15.40;;;6.45;;
38811;SDS011;24553;51.640;-0.752;2022-12-18T10:25:15;20.45;;;8.48;;
38811;SDS011;24553;51.640;-0.752;2022-12-18T10:27:46;14.73;;;6.45;;
38811;SDS011;24553;51.640;-0.752;2022-12-18T10:30:17;15.77;;;6.68;;
38811;SDS011;24553;51.640;-0.752;2022-12-18T10:32:44;19.80;;;5.70;;
38811;SDS011;24553;51.640;-0.752;2022-12-18T10:35:19;13.60;;;5.85;;
38811;SDS011;24553;51.640;-0.752;2022-12-18T10:38:06;11.95;;;6.10;;
38811;SDS011;24553;51.640;-0.752;2022-12-18T10:40:51;12.07;;;6.13;;
38811;SDS011;24553;51.640;-0.752;2022-12-18T10:43:36;9.82;;;5.07;;
38811;SDS011;24553;51.640;-0.752;2022-12-18T10:51:19;21.23;;;8.85;;
38811;SDS011;24553;51.640;-0.752;2022-12-18T10:53:53;14.10;;;6.30;;
38811;SDS011;24553;51.640;-0.752;2022-12-18T10:56:26;14.82;;;6.82;;
38811;SDS011;24553;51.640;-0.752;2022-12-18T10:59:03;16.02;;;7.63;;
38811;SDS011;24553;51.640;-0.752;2022-12-18T11:01:46;13.23;;;5.80;;
38811;SDS011;24553;51.640;-0.752;2022-12-18T11:04:23;17.48;;;6.95;;
38811;SDS011;24553;51.640;-0.752;2022-12-18T11:09:33;19.20;;;7.45;;
38811;SDS011;24553;51.640;-0.752;2022-12-18T11:12:01;15.23;;;6.82;;
38811;SDS011;24553;51.640;-0.752;2022-12-18T11:14:46;17.90;;;5.75;;
38811;SDS011;24553;51.640;-0.752;2022-12-18T11:19:57;15.10;;;7.38;;
38811;SDS011;24553;51.640;-0.752;2022-12-18T11:22:30;13.73;;;6.38;;
38811;SDS011;24553;51.640;-0.752;2022-12-18T11:36:43;17.00;;;6.25;;
38811;SDS011;24553;51.640;-0.752;2022-12-18T11:39:13;20.52;;;8.27;;
38811;SDS011;24553;51.640;-0.752;2022-12-18T11:41:53;12.23;;;7.00;;
38811;SDS011;24553;51.640;-0.752;2022-12-18T11:44:46;18.50;;;8.02;;
38811;SDS011;24553;51.640;-0.752;2022-12-18T11:47:37;18.98;;;7.22;;
38811;SDS011;24553;51.640;-0.752;2022-12-18T11:50:13;16.42;;;6.65;;
38811;SDS011;24553;51.640;-0.752;2022-12-18T11:52:42;17.05;;;6.10;;
38811;SDS011;24553;51.640;-0.752;2022-12-18T11:55:21;18.10;;;7.53;;
38811;SDS011;24553;51.640;-0.752;2022-12-18T12:07:02;23.50;;;9.35;;
38811;SDS011;24553;51.640;-0.752;2022-12-18T12:09:57;17.55;;;6.38;;
38811;SDS011;24553;51.640;-0.752;2022-12-18T12:15:54;15.45;;;7.05;;
38811;SDS011;24553;51.640;-0.752;2022-12-18T12:21:28;27.00;;;9.57;;
38811;SDS011;24553;51.640;-0.752;2022-12-18T12:26:49;11.93;;;7.60;;
38811;SDS011;24553;51.640;-0.752;2022-12-18T12:40:26;18.10;;;7.20;;
38811;SDS011;24553;51.640;-0.752;2022-12-18T12:42:54;18.00;;;8.07;;
38811;SDS011;24553;51.640;-0.752;2022-12-18T12:45:44;33.05;;;10.98;;
38811;SDS011;24553;51.640;-0.752;2022-12-18T12:48:15;23.65;;;10.77;;
38811;SDS011;24553;51.640;-0.752;2022-12-18T12:50:56;30.33;;;11.00;;
38811;SDS011;24553;51.640;-0.752;2022-12-18T12:53:27;19.73;;;9.88;;
38811;SDS011;24553;51.640;-0.752;2022-12-18T12:55:57;26.80;;;11.63;;
38811;SDS011;24553;51.640;-0.752;2022-12-18T12:58:45;23.77;;;9.95;;
38811;SDS011;24553;51.640;-0.752;2022-12-18T13:06:33;21.88;;;9.65;;
38811;SDS011;24553;51.640;-0.752;2022-12-18T13:09:01;22.58;;;9.43;;
38811;SDS011;24553;51.640;-0.752;2022-12-18T13:11:38;18.98;;;9.43;;
38811;SDS011;24553;51.640;-0.752;2022-12-18T13:14:26;18.52;;;8.32;;
38811;SDS011;24553;51.640;-0.752;2022-12-18T13:19:48;15.95;;;8.93;;
38811;SDS011;24553;51.640;-0.752;2022-12-18T13:22:31;19.63;;;9.07;;
38811;SDS011;24553;51.640;-0.752;2022-12-18T13:25:00;14.23;;;7.47;;
38811;SDS011;24553;51.640;-0.752;2022-12-18T13:33:30;14.70;;;7.55;;
38811;SDS011;24553;51.640;-0.752;2022-12-18T13:36:23;11.98;;;6.00;;
38811;SDS011;24553;51.640;-0.752;2022-12-18T13:41:38;13.70;;;6.40;;
38811;SDS011;24553;51.640;-0.752;2022-12-18T13:44:17;14.63;;;7.03;;
38811;SDS011;24553;51.640;-0.752;2022-12-18T13:46:50;14.30;;;6.68;;
38811;SDS011;24553;51.640;-0.752;2022-12-18T13:49:20;16.42;;;7.47;;
38811;SDS011;24553;51.640;-0.752;2022-12-18T13:51:47;15.80;;;6.50;;
38811;SDS011;24553;51.640;-0.752;2022-12-18T13:54:18;13.07;;;6.55;;
38811;SDS011;24553;51.640;-0.752;2022-12-18T13:57:01;14.85;;;5.72;;
38811;SDS011;24553;51.640;-0.752;2022-12-18T14:02:07;13.55;;;6.38;;
38811;SDS011;24553;51.640;-0.752;2022-12-18T14:04:38;15.18;;;7.72;;
38811;SDS011;24553;51.640;-0.752;2022-12-18T14:07:07;13.45;;;6.15;;
38811;SDS011;24553;51.640;-0.752;2022-12-18T14:09:40;19.95;;;6.55;;
38811;SDS011;24553;51.640;-0.752;2022-12-18T14:12:14;11.82;;;5.90;;
38811;SDS011;24553;51.640;-0.752;2022-12-18T14:15:02;11.35;;;6.07;;
38811;SDS011;24553;51.640;-0.752;2022-12-18T14:17:30;9.60;;;5.25;;
38811;SDS011;24553;51.640;-0.752;2022-12-18T14:19:56;10.35;;;4.95;;
38811;SDS011;24553;51.640;-0.752;2022-12-18T14:22:25;9.18;;;4.80;;
38811;SDS011;24553;51.640;-0.752;2022-12-18T14:27:42;9.38;;;4.53;;
38811;SDS011;24553;51.640;-0.752;2022-12-18T14:33:03;10.55;;;5.28;;
38811;SDS011;24553;51.640;-0.752;2022-12-18T14:35:31;10.82;;;4.90;;
38811;SDS011;24553;51.640;-0.752;2022-12-18T14:40:41;9.23;;;4.15;;
38811;SDS011;24553;51.640;-0.752;2022-12-18T14:43:10;7.63;;;3.95;;
38811;SDS011;24553;51.640;-0.752;2022-12-18T14:45:40;8.68;;;4.25;;
38811;SDS011;24553;51.640;-0.752;2022-12-18T14:48:15;7.95;;;4.07;;
38811;SDS011;24553;51.640;-0.752;2022-12-18T14:50:53;8.43;;;4.82;;
38811;SDS011;24553;51.640;-0.752;2022-12-18T14:53:43;6.22;;;4.00;;
38811;SDS011;24553;51.640;-0.752;2022-12-18T14:56:27;6.55;;;3.88;;
38811;SDS011;24553;51.640;-0.752;2022-12-18T15:01:35;6.18;;;2.92;;
38811;SDS011;24553;51.640;-0.752;2022-12-18T15:04:03;6.32;;;4.28;;
38811;SDS011;24553;51.640;-0.752;2022-12-18T15:09:02;7.85;;;4.15;;
38811;SDS011;24553;51.640;-0.752;2022-12-18T15:11:46;6.85;;;3.63;;
38811;SDS011;24553;51.640;-0.752;2022-12-18T15:14:22;4.72;;;2.85;;
38811;SDS011;24553;51.640;-0.752;2022-12-18T15:16:55;6.40;;;2.72;;
38811;SDS011;24553;51.640;-0.752;2022-12-18T15:19:22;5.38;;;3.35;;
38811;SDS011;24553;51.640;-0.752;2022-12-18T15:22:04;4.35;;;2.50;;
38811;SDS011;24553;51.640;-0.752;2022-12-18T15:24:41;4.65;;;3.22;;
38811;SDS011;24553;51.640;-0.752;2022-12-18T15:27:18;4.65;;;3.22;;
38811;SDS011;24553;51.640;-0.752;2022-12-18T15:32:32;9.30;;;3.45;;
38811;SDS011;24553;51.640;-0.752;2022-12-18T15:35:03;7.22;;;3.22;;
38811;SDS011;24553;51.640;-0.752;2022-12-18T15:37:34;4.88;;;2.95;;
38811;SDS011;24553;51.640;-0.752;2022-12-18T15:40:00;4.05;;;2.47;;
38811;SDS011;24553;51.640;-0.752;2022-12-18T15:42:27;5.05;;;2.22;;
38811;SDS011;24553;51.640;-0.752;2022-12-18T15:45:12;4.40;;;2.50;;
38811;SDS011;24553;51.640;-0.752;2022-12-18T15:47:38;6.90;;;3.33;;
38811;SDS011;24553;51.640;-0.752;2022-12-18T15:50:03;10.50;;;2.58;;
38811;SDS011;24553;51.640;-0.752;2022-12-18T15:52:29;3.33;;;2.10;;
38811;SDS011;24553;51.640;-0.752;2022-12-18T15:55:05;3.75;;;3.05;;
38811;SDS011;24553;51.640;-0.752;2022-12-18T15:57:53;3.92;;;2.80;;
38811;SDS011;24553;51.640;-0.752;2022-12-18T16:00:19;3.75;;;2.72;;
38811;SDS011;24553;51.640;-0.752;2022-12-18T16:02:44;3.95;;;3.33;;
38811;SDS011;24553;51.640;-0.752;2022-12-18T16:05:13;3.55;;;2.58;;
38811;SDS011;24553;51.640;-0.752;2022-12-18T16:07:40;3.42;;;2.85;;
38811;SDS011;24553;51.640;-0.752;2022-12-18T16:10:05;2.58;;;1.80;;
38811;SDS011;24553;51.640;-0.752;2022-12-18T16:12:31;3.30;;;2.03;;
38811;SDS011;24553;51.640;-0.752;2022-12-18T16:14:56;2.45;;;2.15;;
38811;SDS011;24553;51.640;-0.752;2022-12-18T16:17:22;2.33;;;2.13;;
38811;SDS011;24553;51.640;-0.752;2022-12-18T16:19:47;3.88;;;2.38;;
38811;SDS011;24553;51.640;-0.752;2022-12-18T16:22:18;3.45;;;2.30;;
38811;SDS011;24553;51.640;-0.752;2022-12-18T16:24:48;3.72;;;2.35;;
38811;SDS011;24553;51.640;-0.752;2022-12-18T16:27:15;2.45;;;1.50;;
38811;SDS011;24553;51.640;-0.752;2022-12-18T16:29:41;2.55;;;1.73;;
38811;SDS011;24553;51.640;-0.752;2022-12-18T16:32:06;5.20;;;1.77;;
38811;SDS011;24553;51.640;-0.752;2022-12-18T16:34:34;1.67;;;1.58;;
38811;SDS011;24553;51.640;-0.752;2022-12-18T16:37:03;4.18;;;2.33;;
38811;SDS011;24553;51.640;-0.752;2022-12-18T16:39:30;3.60;;;2.10;;
38811;SDS011;24553;51.640;-0.752;2022-12-18T16:41:56;2.60;;;1.70;;